CheckWX is a tool to help pilots better visualize weather data.  It is not intended as a substitute for an official pre-flight weather briefing.

18:01:04 UTC

KCLL METAR
Easterwood Field Airport
College Station, Texas, USA
Current

1 hour ago

KCLL 171653Z 34021G26KT 10SM FEW017 OVC080 13/08 A2990 RMK AO2 PK WND 35026/1647 SLP123 T01330083
Observed
Feb-17 @ 16:53 UTC
Wind
  • 340° at 21 KTS
  • Gusting to 26 KTS
Visibility
10 SM
Flight Rules
VFR
Cloud Levels
  • Few at 1,700' AGL
  • Overcast at 8,000' AGL
Temperature
13°C / 55°F
Dewpoint
C / 46°F
Humidity
72%
Altimeter
29.9" Hg
Pressure
1012.3 hPa
Previous

1 hour ago

KCLL 171632Z 35018G25KT 10SM SCT015 BKN080 12/08 A2989 RMK AO2 T01220083
Observed
Feb-17 @ 16:32 UTC
Wind
  • 350° at 18 KTS
  • Gusting to 25 KTS
Visibility
10 SM
Flight Rules
VFR
Cloud Levels
  • Scattered at 1,500' AGL
  • Broken at 8,000' AGL
Temperature
12°C / 54°F
Dewpoint
C / 46°F
Humidity
77%
Altimeter
29.89" Hg
Pressure
1012.22 hPa
Previous

2 hours ago

KCLL 171553Z 34018KT 10SM BKN011 11/09 A2987 RMK AO2 SLP114 T01110089
Observed
Feb-17 @ 15:53 UTC
Wind
  • 340° at 18 KTS
Visibility
10 SM
Flight Rules
MVFR
Cloud Levels
  • Broken at 1,100' AGL
Temperature
11°C / 52°F
Dewpoint
C / 48°F
Humidity
88%
Altimeter
29.87" Hg
Pressure
1011.4 hPa